createdAt,value
2017-12-26T00:00:49.302Z,17.27
2017-12-26T00:03:15.180Z,17.70
2017-12-26T00:05:41.248Z,18.10
2017-12-26T00:08:07.930Z,18.52
2017-12-26T00:10:33.699Z,16.98
2017-12-26T00:12:59.452Z,17.20
2017-12-26T00:15:25.203Z,17.77
2017-12-26T00:17:50.947Z,16.03
2017-12-26T00:20:16.913Z,15.33
2017-12-26T00:22:42.675Z,15.40
2017-12-26T00:25:09.337Z,14.17
2017-12-26T00:27:35.102Z,15.50
2017-12-26T00:30:00.872Z,14.60
2017-12-26T00:32:26.630Z,14.53
2017-12-26T00:34:52.396Z,14.00
2017-12-26T00:37:18.160Z,14.17
2017-12-26T00:39:43.971Z,13.77
2017-12-26T00:42:09.723Z,13.10
2017-12-26T00:44:35.454Z,13.43
2017-12-26T00:47:01.207Z,12.50
2017-12-26T00:49:27.015Z,12.83
2017-12-26T00:51:52.858Z,12.63
2017-12-26T00:54:18.621Z,12.37
2017-12-26T00:56:44.384Z,12.57
2017-12-26T00:59:10.158Z,13.10
2017-12-26T01:01:35.927Z,12.00
2017-12-26T01:04:01.917Z,12.47
2017-12-26T01:06:27.675Z,13.20
2017-12-26T01:08:53.431Z,12.67
2017-12-26T01:11:19.227Z,11.47
2017-12-26T01:13:44.970Z,12.40
2017-12-26T01:16:10.716Z,10.87
2017-12-26T01:18:36.461Z,11.20
2017-12-26T01:21:02.223Z,10.83
2017-12-26T01:23:27.972Z,10.60
2017-12-26T01:25:53.724Z,12.63
2017-12-26T01:28:19.476Z,10.60
2017-12-26T01:30:45.220Z,10.43
2017-12-26T01:33:10.967Z,10.37
2017-12-26T01:35:36.707Z,11.00
2017-12-26T01:38:02.467Z,10.67
2017-12-26T01:40:28.241Z,9.60
2017-12-26T01:42:54.000Z,9.87
2017-12-26T01:45:19.747Z,9.70
2017-12-26T01:47:45.499Z,10.00
2017-12-26T01:50:11.260Z,8.97
2017-12-26T01:52:37.052Z,9.03
2017-12-26T01:55:02.810Z,8.63
2017-12-26T01:57:28.568Z,8.20
2017-12-26T01:59:54.331Z,8.17
2017-12-26T02:02:20.108Z,7.90
2017-12-26T02:04:45.872Z,7.23
2017-12-26T02:07:11.655Z,8.13
2017-12-26T02:09:37.407Z,7.60
2017-12-26T02:12:03.166Z,7.70
2017-12-26T02:14:28.951Z,7.23
2017-12-26T02:16:54.707Z,8.17
2017-12-26T02:19:20.477Z,7.37
2017-12-26T02:21:46.236Z,7.07
2017-12-26T02:24:12.011Z,7.07
2017-12-26T02:26:37.767Z,7.40
2017-12-26T02:29:03.533Z,6.20
2017-12-26T02:31:29.292Z,6.70
2017-12-26T02:33:55.061Z,9.13
2017-12-26T02:36:20.818Z,6.10
2017-12-26T02:38:46.584Z,7.10
2017-12-26T02:41:12.344Z,5.80
2017-12-26T02:43:38.102Z,6.03
2017-12-26T02:46:03.861Z,7.07
2017-12-26T02:48:29.643Z,6.87
2017-12-26T02:50:55.400Z,6.57
2017-12-26T02:53:28.185Z,6.67
2017-12-26T02:55:53.936Z,6.28
2017-12-26T02:58:19.708Z,6.33
2017-12-26T03:00:45.463Z,6.20
2017-12-26T03:03:11.268Z,5.93
2017-12-26T03:05:37.019Z,6.40
2017-12-26T03:08:02.768Z,6.47
2017-12-26T03:10:28.527Z,7.10
2017-12-26T03:12:54.279Z,6.43
2017-12-26T03:15:20.039Z,6.80
2017-12-26T03:17:45.796Z,7.57
2017-12-26T03:20:11.555Z,7.57
2017-12-26T03:22:37.319Z,7.03
2017-12-26T03:25:03.086Z,7.77
2017-12-26T03:27:28.857Z,7.60
2017-12-26T03:29:54.618Z,7.57
2017-12-26T03:32:20.371Z,7.87
2017-12-26T03:34:46.156Z,7.83
2017-12-26T03:37:11.967Z,7.20
2017-12-26T03:39:37.715Z,7.13
2017-12-26T03:42:03.479Z,7.90
2017-12-26T03:44:29.223Z,8.67
2017-12-26T03:46:54.982Z,8.17
2017-12-26T03:49:20.745Z,8.53
2017-12-26T03:51:46.496Z,8.03
2017-12-26T03:54:12.235Z,7.43
2017-12-26T03:56:37.979Z,7.97
2017-12-26T03:59:03.712Z,9.23
2017-12-26T04:01:29.481Z,7.73
2017-12-26T04:03:55.240Z,7.63
2017-12-26T04:06:21.004Z,7.60
2017-12-26T04:08:46.756Z,7.20
2017-12-26T04:11:12.520Z,7.17
2017-12-26T04:13:38.254Z,7.33
2017-12-26T04:16:04.015Z,7.47
2017-12-26T04:18:29.752Z,7.37
2017-12-26T04:20:55.502Z,6.97
2017-12-26T04:23:21.247Z,7.17
2017-12-26T04:25:47.004Z,8.23
2017-12-26T04:28:12.739Z,7.20
2017-12-26T04:30:38.471Z,7.00
2017-12-26T04:33:04.246Z,6.40
2017-12-26T04:35:30.004Z,7.37
2017-12-26T04:37:55.787Z,7.40
2017-12-26T04:40:21.534Z,8.07
2017-12-26T04:42:47.319Z,6.47
2017-12-26T04:45:13.071Z,7.27
2017-12-26T04:47:38.828Z,7.40
2017-12-26T04:50:04.599Z,7.30
2017-12-26T04:52:30.359Z,8.73
2017-12-26T04:54:56.115Z,7.33
2017-12-26T04:57:21.868Z,7.10
2017-12-26T04:59:47.602Z,7.83
2017-12-26T05:02:13.360Z,7.37
2017-12-26T05:04:39.111Z,7.57
2017-12-26T05:07:04.850Z,7.20
2017-12-26T05:09:30.578Z,8.57
2017-12-26T05:11:56.335Z,8.20
2017-12-26T05:14:22.067Z,7.63
2017-12-26T05:16:47.787Z,7.90
2017-12-26T05:19:13.537Z,7.70
2017-12-26T05:21:39.285Z,7.10
2017-12-26T05:24:05.036Z,7.57
2017-12-26T05:26:30.776Z,7.50
2017-12-26T05:28:56.523Z,7.67
2017-12-26T05:31:22.267Z,9.67
2017-12-26T05:33:48.002Z,8.00
2017-12-26T05:36:13.742Z,7.53
2017-12-26T05:38:39.478Z,7.50
2017-12-26T05:41:05.201Z,6.77
2017-12-26T05:43:30.962Z,7.40
2017-12-26T05:45:56.706Z,6.70
2017-12-26T05:48:22.459Z,7.23
2017-12-26T05:50:48.198Z,7.10
2017-12-26T05:53:13.947Z,8.23
2017-12-26T05:55:39.695Z,7.63
2017-12-26T05:58:05.438Z,7.73
2017-12-26T06:00:31.189Z,8.53
2017-12-26T06:02:58.349Z,9.13
2017-12-26T06:05:25.614Z,8.43
2017-12-26T06:07:51.441Z,7.55
2017-12-26T06:10:17.195Z,7.40
2017-12-26T06:12:42.944Z,8.13
2017-12-26T06:15:08.715Z,7.57
2017-12-26T06:17:34.474Z,7.60
2017-12-26T06:20:00.240Z,7.90
2017-12-26T06:22:25.999Z,6.93
2017-12-26T06:24:51.763Z,7.70
2017-12-26T06:27:17.507Z,7.00
2017-12-26T06:29:43.258Z,9.87
2017-12-26T06:32:08.993Z,7.90
2017-12-26T06:34:34.751Z,7.73
2017-12-26T06:37:00.511Z,8.33
2017-12-26T06:39:26.283Z,8.33
2017-12-26T06:41:52.031Z,8.97
2017-12-26T06:44:17.796Z,8.33
2017-12-26T06:46:43.555Z,8.03
2017-12-26T06:49:09.316Z,7.87
2017-12-26T06:51:35.053Z,7.97
2017-12-26T06:54:00.823Z,8.23
2017-12-26T06:56:26.566Z,9.00
2017-12-26T06:58:52.303Z,8.30
2017-12-26T07:01:18.046Z,8.20
2017-12-26T07:03:43.779Z,8.33
2017-12-26T07:06:09.531Z,9.43
2017-12-26T07:08:35.278Z,9.13
2017-12-26T07:11:01.031Z,11.33
2017-12-26T07:13:26.783Z,8.50
2017-12-26T07:15:52.534Z,9.00
2017-12-26T07:18:18.279Z,8.80
2017-12-26T07:20:50.160Z,9.23
2017-12-26T07:23:15.910Z,9.68
2017-12-26T07:25:41.679Z,9.43
2017-12-26T07:28:07.447Z,9.23
2017-12-26T07:30:33.207Z,8.37
2017-12-26T07:32:58.965Z,8.50
2017-12-26T07:35:24.768Z,9.67
2017-12-26T07:37:50.502Z,9.17
2017-12-26T07:40:16.245Z,9.63
2017-12-26T07:42:42.016Z,9.20
2017-12-26T07:45:07.776Z,8.93
2017-12-26T07:47:33.531Z,8.63
2017-12-26T07:49:59.275Z,10.37
2017-12-26T07:52:25.019Z,9.43
2017-12-26T07:54:50.767Z,9.63
2017-12-26T07:57:16.522Z,9.67
2017-12-26T07:59:42.267Z,9.17
2017-12-26T08:02:08.023Z,9.77
2017-12-26T08:04:33.767Z,9.40
2017-12-26T08:06:59.527Z,9.87
2017-12-26T08:09:25.284Z,9.20
2017-12-26T08:11:51.044Z,9.17
2017-12-26T08:14:16.792Z,10.37
2017-12-26T08:16:42.554Z,10.23
2017-12-26T08:19:08.297Z,8.60
2017-12-26T08:21:34.071Z,8.57
2017-12-26T08:23:59.839Z,9.70
2017-12-26T08:26:25.583Z,10.43
2017-12-26T08:28:51.335Z,9.87
2017-12-26T08:31:17.070Z,9.30
2017-12-26T08:33:42.830Z,9.70
2017-12-26T08:36:08.563Z,8.90
2017-12-26T08:38:34.318Z,9.17
2017-12-26T08:41:00.067Z,9.07
2017-12-26T08:43:25.827Z,9.50
2017-12-26T08:45:51.567Z,9.77
2017-12-26T08:48:17.328Z,10.20
2017-12-26T08:50:43.098Z,10.60
2017-12-26T08:53:08.864Z,10.03
2017-12-26T08:55:34.618Z,9.67
2017-12-26T08:58:00.388Z,9.53
2017-12-26T09:00:26.141Z,11.13
2017-12-26T09:02:51.921Z,9.60
2017-12-26T09:05:17.668Z,10.80
2017-12-26T09:07:43.420Z,10.30
2017-12-26T09:10:09.184Z,9.17
2017-12-26T09:12:34.926Z,9.20
2017-12-26T09:15:00.695Z,8.90
2017-12-26T09:17:26.452Z,9.83
2017-12-26T09:19:52.232Z,8.47
2017-12-26T09:22:17.992Z,10.53
2017-12-26T09:24:43.759Z,8.83
2017-12-26T09:27:09.511Z,8.40
2017-12-26T09:29:35.259Z,9.90
2017-12-26T09:32:01.025Z,8.80
2017-12-26T09:34:26.755Z,8.90
2017-12-26T09:36:52.511Z,7.63
2017-12-26T09:39:18.259Z,9.03
2017-12-26T09:41:44.060Z,8.43
2017-12-26T09:44:09.807Z,8.10
2017-12-26T09:46:35.558Z,8.47
2017-12-26T09:49:01.308Z,8.43
2017-12-26T09:51:27.074Z,7.70
2017-12-26T09:53:52.822Z,7.03
2017-12-26T09:56:18.578Z,7.40
2017-12-26T09:58:44.353Z,7.57
2017-12-26T10:01:10.124Z,7.10
2017-12-26T10:03:35.879Z,8.13
2017-12-26T10:06:01.635Z,7.40
2017-12-26T10:08:27.359Z,6.60
2017-12-26T10:10:53.125Z,6.97
2017-12-26T10:13:18.886Z,6.87
2017-12-26T10:15:44.654Z,5.63
2017-12-26T10:18:10.416Z,6.10
2017-12-26T10:20:36.199Z,5.87
2017-12-26T10:23:01.956Z,5.40
2017-12-26T10:25:27.723Z,6.70
2017-12-26T10:27:53.477Z,5.07
2017-12-26T10:30:19.256Z,5.67
2017-12-26T10:32:45.016Z,4.80
2017-12-26T10:35:10.776Z,4.80
2017-12-26T10:37:36.536Z,4.50
2017-12-26T10:40:02.302Z,4.23
2017-12-26T10:42:28.076Z,4.03
2017-12-26T10:44:53.829Z,3.90
2017-12-26T10:47:19.573Z,3.70
2017-12-26T10:49:45.324Z,3.63
2017-12-26T10:52:11.076Z,3.30
2017-12-26T10:54:36.816Z,3.23
2017-12-26T10:57:02.596Z,3.77
2017-12-26T10:59:28.344Z,3.13
2017-12-26T11:01:54.097Z,2.67
2017-12-26T11:04:19.844Z,2.37
2017-12-26T11:06:45.610Z,2.93
2017-12-26T11:09:11.362Z,2.43
2017-12-26T11:11:37.145Z,2.53
2017-12-26T11:14:02.888Z,2.50
2017-12-26T11:16:28.673Z,2.30
2017-12-26T11:18:54.420Z,2.40
2017-12-26T11:21:20.160Z,2.40
2017-12-26T11:23:45.921Z,2.20
2017-12-26T11:26:11.665Z,2.80
2017-12-26T11:28:37.420Z,2.20
2017-12-26T11:31:03.165Z,2.17
2017-12-26T11:33:28.921Z,1.93
2017-12-26T11:35:54.672Z,2.50
2017-12-26T11:38:20.428Z,2.50
2017-12-26T11:40:46.168Z,2.77
2017-12-26T11:43:11.932Z,2.10
2017-12-26T11:45:37.688Z,2.00
2017-12-26T11:48:03.449Z,1.87
2017-12-26T11:50:29.196Z,1.70
2017-12-26T11:52:54.944Z,2.00
2017-12-26T11:55:20.701Z,1.97
2017-12-26T11:57:46.453Z,2.83
2017-12-26T12:00:12.221Z,4.37
2017-12-26T12:02:37.960Z,1.53
2017-12-26T12:05:03.720Z,2.13
2017-12-26T12:07:29.468Z,2.57
2017-12-26T12:09:55.225Z,1.93
2017-12-26T12:12:20.976Z,3.53
2017-12-26T12:14:46.716Z,3.07
2017-12-26T12:17:12.458Z,6.30
2017-12-26T12:19:38.205Z,3.47
2017-12-26T12:22:03.960Z,4.47
2017-12-26T12:24:29.728Z,4.00
2017-12-26T12:26:55.472Z,3.23
2017-12-26T12:29:21.229Z,6.87
2017-12-26T12:31:46.984Z,2.80
2017-12-26T12:34:12.727Z,3.53
2017-12-26T12:36:38.476Z,8.57
2017-12-26T12:39:04.232Z,5.37
2017-12-26T12:41:30.002Z,3.73
2017-12-26T12:43:55.755Z,4.27
2017-12-26T12:46:21.505Z,3.27
2017-12-26T12:48:47.303Z,2.97
2017-12-26T12:51:13.018Z,3.37
2017-12-26T12:53:38.757Z,3.47
2017-12-26T12:56:04.503Z,3.73
2017-12-26T12:58:30.247Z,5.27
2017-12-26T13:00:56.007Z,3.27
2017-12-26T13:03:21.745Z,4.37
2017-12-26T13:05:47.519Z,5.20
2017-12-26T13:08:13.280Z,4.37
2017-12-26T13:10:39.028Z,4.70
2017-12-26T13:13:04.780Z,5.50
2017-12-26T13:15:30.508Z,3.47
2017-12-26T13:17:56.256Z,5.57
2017-12-26T13:20:22.019Z,4.63
2017-12-26T13:22:47.773Z,4.33
2017-12-26T13:25:13.509Z,5.87
2017-12-26T13:27:39.261Z,3.80
2017-12-26T13:30:05.004Z,3.17
2017-12-26T13:32:30.760Z,3.70
2017-12-26T13:34:56.492Z,4.80
2017-12-26T13:37:22.239Z,3.77
2017-12-26T13:39:47.975Z,6.03
2017-12-26T13:42:13.714Z,4.83
2017-12-26T13:44:39.459Z,3.07
2017-12-26T13:47:05.223Z,4.33
2017-12-26T13:49:30.977Z,3.27
2017-12-26T13:51:56.711Z,3.80
2017-12-26T13:54:22.457Z,5.63
2017-12-26T13:56:48.196Z,3.53
2017-12-26T13:59:13.956Z,6.03
2017-12-26T14:01:39.694Z,1.83
2017-12-26T14:04:12.329Z,3.17
2017-12-26T14:06:38.066Z,2.85
2017-12-26T14:09:03.819Z,5.53
2017-12-26T14:11:29.556Z,4.53
2017-12-26T14:13:55.311Z,5.97
2017-12-26T14:16:21.049Z,5.80
2017-12-26T14:18:46.811Z,5.23
2017-12-26T14:21:12.551Z,5.07
2017-12-26T14:23:38.299Z,2.83
2017-12-26T14:26:04.055Z,3.90
2017-12-26T14:28:29.824Z,3.70
2017-12-26T14:30:55.554Z,6.17
2017-12-26T14:33:21.313Z,4.87
2017-12-26T14:35:47.073Z,4.50
2017-12-26T14:38:12.836Z,6.03
2017-12-26T14:40:38.594Z,7.23
2017-12-26T14:43:04.335Z,5.67
2017-12-26T14:45:30.095Z,4.50
2017-12-26T14:47:55.842Z,4.37
2017-12-26T14:50:21.583Z,6.77
2017-12-26T14:52:47.336Z,5.13
2017-12-26T14:55:13.083Z,5.87
2017-12-26T14:57:38.827Z,4.53
2017-12-26T15:00:04.584Z,4.20
2017-12-26T15:02:30.330Z,7.27
2017-12-26T15:04:56.090Z,6.27
2017-12-26T15:07:21.844Z,5.53
2017-12-26T15:09:47.608Z,6.67
2017-12-26T15:12:13.351Z,5.17
2017-12-26T15:14:39.094Z,6.17
2017-12-26T15:17:04.848Z,6.90
2017-12-26T15:19:30.618Z,4.37
2017-12-26T15:21:56.371Z,4.67
2017-12-26T15:24:22.103Z,4.17
2017-12-26T15:26:47.846Z,6.17
2017-12-26T15:29:13.576Z,6.03
2017-12-26T15:31:39.343Z,8.90
2017-12-26T15:34:05.078Z,5.30
2017-12-26T15:36:30.842Z,5.27
2017-12-26T15:38:56.585Z,7.03
2017-12-26T15:41:22.338Z,6.67
2017-12-26T15:43:48.090Z,6.80
2017-12-26T15:46:13.880Z,7.80
2017-12-26T15:48:39.631Z,5.33
2017-12-26T15:51:05.393Z,7.70
2017-12-26T15:53:31.132Z,7.10
2017-12-26T15:55:56.862Z,7.07
2017-12-26T15:58:22.608Z,6.43
2017-12-26T16:00:48.343Z,6.73
2017-12-26T16:03:14.090Z,6.43
2017-12-26T16:05:39.863Z,5.67
2017-12-26T16:08:05.592Z,7.87
2017-12-26T16:10:31.335Z,6.30
2017-12-26T16:12:57.078Z,8.80
2017-12-26T16:15:22.816Z,5.40
2017-12-26T16:17:48.568Z,7.50
2017-12-26T16:20:14.326Z,5.50
2017-12-26T16:22:40.071Z,6.27
2017-12-26T16:25:05.800Z,7.20
2017-12-26T16:27:31.580Z,4.67
2017-12-26T16:29:57.319Z,4.60
2017-12-26T16:32:23.048Z,6.67
2017-12-26T16:34:48.800Z,4.27
2017-12-26T16:37:14.579Z,3.77
2017-12-26T16:39:40.323Z,4.77
2017-12-26T16:42:06.068Z,3.77
2017-12-26T16:44:31.825Z,6.30
2017-12-26T16:46:57.563Z,4.67
2017-12-26T16:49:23.320Z,7.07
2017-12-26T16:51:49.044Z,7.07
2017-12-26T16:54:14.783Z,8.30
2017-12-26T16:56:40.524Z,6.33
2017-12-26T16:59:06.267Z,4.07
2017-12-26T17:01:31.990Z,4.20
2017-12-26T17:03:57.743Z,8.40
2017-12-26T17:06:23.476Z,7.63
2017-12-26T17:08:49.245Z,4.33
2017-12-26T17:11:14.983Z,5.13
2017-12-26T17:13:40.714Z,8.00
2017-12-26T17:16:07.360Z,5.43
2017-12-26T17:18:33.110Z,6.90
2017-12-26T17:20:58.863Z,4.97
2017-12-26T17:23:24.599Z,6.33
2017-12-26T17:25:50.339Z,8.83
2017-12-26T17:28:16.075Z,7.97
2017-12-26T17:30:41.820Z,8.10
2017-12-26T17:33:07.547Z,7.40
2017-12-26T17:35:33.296Z,8.07
2017-12-26T17:37:59.043Z,4.63
2017-12-26T17:40:24.800Z,7.07
2017-12-26T17:42:50.551Z,8.03
2017-12-26T17:45:16.318Z,5.07
2017-12-26T17:47:42.076Z,4.77
2017-12-26T17:50:07.838Z,6.60
2017-12-26T17:52:33.588Z,6.13
2017-12-26T17:54:59.343Z,6.00
2017-12-26T17:57:25.100Z,6.33
2017-12-26T17:59:50.877Z,4.70
2017-12-26T18:02:16.647Z,5.50
2017-12-26T18:04:42.396Z,4.53
2017-12-26T18:07:08.156Z,4.97
2017-12-26T18:09:33.919Z,7.07
2017-12-26T18:11:59.689Z,7.37
2017-12-26T18:14:26.525Z,5.63
2017-12-26T18:16:52.276Z,5.65
2017-12-26T18:19:18.039Z,5.90
2017-12-26T18:21:43.819Z,4.57
2017-12-26T18:24:09.659Z,11.03
2017-12-26T18:26:35.407Z,10.77
2017-12-26T18:29:01.212Z,6.63
2017-12-26T18:31:26.942Z,8.10
2017-12-26T18:33:52.702Z,9.13
2017-12-26T18:36:18.446Z,5.63
2017-12-26T18:38:44.190Z,8.33
2017-12-26T18:41:09.966Z,7.47
2017-12-26T18:43:35.757Z,8.30
2017-12-26T18:46:01.567Z,8.13
2017-12-26T18:48:27.334Z,8.20
2017-12-26T18:50:53.130Z,11.43
2017-12-26T18:53:18.904Z,5.50
2017-12-26T18:55:44.666Z,5.50
2017-12-26T18:58:10.667Z,7.27
2017-12-26T19:00:36.441Z,6.80
2017-12-26T19:03:02.211Z,7.90
2017-12-26T19:05:27.983Z,8.17
2017-12-26T19:07:53.733Z,6.90
2017-12-26T19:10:19.747Z,6.50
2017-12-26T19:12:45.503Z,8.95
2017-12-26T19:15:11.266Z,6.20
2017-12-26T19:17:37.015Z,4.87
2017-12-26T19:20:02.802Z,7.93
2017-12-26T19:22:28.534Z,8.03
2017-12-26T19:24:54.287Z,7.87
2017-12-26T19:27:20.032Z,8.70
2017-12-26T19:29:45.798Z,7.13
2017-12-26T19:32:11.547Z,5.70
2017-12-26T19:34:37.299Z,6.27
2017-12-26T19:37:03.047Z,8.07
2017-12-26T19:39:28.798Z,6.30
2017-12-26T19:41:54.558Z,12.03
2017-12-26T19:44:20.335Z,6.93
2017-12-26T19:46:46.086Z,5.87
2017-12-26T19:49:11.823Z,7.53
2017-12-26T19:51:37.580Z,10.63
2017-12-26T19:54:03.330Z,7.33
2017-12-26T19:56:29.081Z,9.00
2017-12-26T19:58:54.823Z,7.67
2017-12-26T20:01:20.572Z,9.20
2017-12-26T20:03:46.322Z,13.90
2017-12-26T20:06:12.082Z,10.97
2017-12-26T20:08:37.825Z,9.40
2017-12-26T20:11:03.566Z,16.23
2017-12-26T20:13:29.298Z,12.93
2017-12-26T20:15:55.076Z,9.87
2017-12-26T20:18:20.818Z,8.30
2017-12-26T20:20:46.558Z,12.17
2017-12-26T20:23:12.310Z,8.30
2017-12-26T20:25:38.050Z,10.23
2017-12-26T20:28:09.975Z,14.33
2017-12-26T20:30:35.716Z,7.60
2017-12-26T20:33:01.454Z,10.50
2017-12-26T20:35:27.195Z,10.10
2017-12-26T20:37:53.260Z,7.87
2017-12-26T20:40:18.994Z,12.40
2017-12-26T20:42:44.739Z,8.47
2017-12-26T20:45:10.484Z,8.47
2017-12-26T20:47:36.231Z,8.33
2017-12-26T20:50:01.972Z,8.10
2017-12-26T20:52:27.715Z,8.17
2017-12-26T20:54:53.455Z,10.73
2017-12-26T20:57:19.207Z,9.60
2017-12-26T20:59:44.931Z,7.73
2017-12-26T21:02:10.662Z,7.27
2017-12-26T21:04:36.398Z,7.67
2017-12-26T21:07:02.126Z,7.53
2017-12-26T21:09:27.875Z,9.70
2017-12-26T21:11:53.603Z,9.37
2017-12-26T21:14:19.342Z,7.97
2017-12-26T21:16:45.079Z,10.50
2017-12-26T21:19:10.826Z,8.30
2017-12-26T21:21:36.559Z,7.60
2017-12-26T21:24:02.318Z,8.10
2017-12-26T21:26:28.054Z,8.13
2017-12-26T21:28:53.799Z,8.47
2017-12-26T21:31:19.531Z,7.20
2017-12-26T21:33:45.263Z,8.23
2017-12-26T21:36:10.991Z,6.33
2017-12-26T21:38:36.724Z,6.73
2017-12-26T21:41:02.472Z,8.30
2017-12-26T21:43:28.214Z,9.23
2017-12-26T21:45:53.950Z,7.83
2017-12-26T21:48:19.684Z,7.97
2017-12-26T21:50:45.422Z,7.17
2017-12-26T21:53:11.172Z,8.00
2017-12-26T21:55:36.917Z,8.37
2017-12-26T21:58:02.646Z,7.03
2017-12-26T22:00:28.427Z,9.00
2017-12-26T22:02:54.163Z,8.20
2017-12-26T22:05:19.920Z,7.20
2017-12-26T22:07:45.662Z,8.67
2017-12-26T22:10:11.414Z,8.30
2017-12-26T22:12:37.150Z,7.50
2017-12-26T22:15:02.911Z,11.60
2017-12-26T22:17:28.651Z,9.67
2017-12-26T22:19:54.389Z,7.77
2017-12-26T22:22:20.134Z,10.70
2017-12-26T22:24:45.858Z,7.40
2017-12-26T22:27:11.590Z,10.43
2017-12-26T22:29:37.315Z,10.97
2017-12-26T22:32:03.055Z,6.37
2017-12-26T22:34:28.790Z,10.30
2017-12-26T22:36:54.530Z,7.00
2017-12-26T22:39:20.262Z,7.40
2017-12-26T22:41:45.999Z,8.30
2017-12-26T22:44:11.734Z,10.37
2017-12-26T22:46:37.473Z,12.43
2017-12-26T22:49:03.211Z,7.83
2017-12-26T22:51:28.956Z,10.70
2017-12-26T22:53:54.690Z,9.90
2017-12-26T22:56:20.426Z,8.50
2017-12-26T22:58:46.184Z,7.10
2017-12-26T23:01:11.948Z,12.10
2017-12-26T23:03:37.697Z,9.40
2017-12-26T23:06:03.440Z,9.23
2017-12-26T23:08:29.212Z,9.73
2017-12-26T23:10:54.958Z,10.10
2017-12-26T23:13:20.705Z,8.53
2017-12-26T23:15:52.507Z,8.13
2017-12-26T23:18:20.214Z,11.30
2017-12-26T23:20:52.138Z,10.88
2017-12-26T23:23:24.018Z,10.48
2017-12-26T23:29:00.686Z,11.70
2017-12-26T23:31:32.559Z,8.88
2017-12-26T23:34:04.422Z,6.87
2017-12-26T23:36:36.401Z,11.27
2017-12-26T23:39:08.367Z,7.57
2017-12-26T23:41:40.189Z,11.60
2017-12-26T23:44:12.214Z,11.00
2017-12-26T23:49:46.006Z,13.18
2017-12-26T23:52:17.981Z,11.45
2017-12-26T23:54:49.937Z,8.95
2017-12-26T23:57:21.799Z,8.93
2017-12-26T23:59:53.650Z,13.30
